sensor_id;sensor_type;location;lat;lon;timestamp;P1;durP1;ratioP1;P2;durP2;ratioP2
27003;SDS011;14546;47.590;19.022;2022-10-24T00:02:20;26.45;;;18.92;;
27003;SDS011;14546;47.590;19.022;2022-10-24T00:04:46;26.23;;;18.90;;
27003;SDS011;14546;47.590;19.022;2022-10-24T00:07:12;25.75;;;18.55;;
27003;SDS011;14546;47.590;19.022;2022-10-24T00:09:39;24.55;;;18.40;;
27003;SDS011;14546;47.590;19.022;2022-10-24T00:12:05;25.85;;;18.88;;
27003;SDS011;14546;47.590;19.022;2022-10-24T00:14:31;26.27;;;19.80;;
27003;SDS011;14546;47.590;19.022;2022-10-24T00:16:57;25.58;;;20.13;;
27003;SDS011;14546;47.590;19.022;2022-10-24T00:19:24;25.33;;;19.05;;
27003;SDS011;14546;47.590;19.022;2022-10-24T00:21:50;24.38;;;18.30;;
27003;SDS011;14546;47.590;19.022;2022-10-24T00:24:16;23.73;;;18.88;;
27003;SDS011;14546;47.590;19.022;2022-10-24T00:26:42;26.55;;;19.77;;
27003;SDS011;14546;47.590;19.022;2022-10-24T00:29:09;25.17;;;18.75;;
27003;SDS011;14546;47.590;19.022;2022-10-24T00:31:35;26.52;;;19.58;;
27003;SDS011;14546;47.590;19.022;2022-10-24T00:34:01;27.20;;;19.55;;
27003;SDS011;14546;47.590;19.022;2022-10-24T00:36:28;27.73;;;19.35;;
27003;SDS011;14546;47.590;19.022;2022-10-24T00:38:54;28.75;;;19.85;;
27003;SDS011;14546;47.590;19.022;2022-10-24T00:41:25;26.63;;;19.50;;
27003;SDS011;14546;47.590;19.022;2022-10-24T00:44:11;26.55;;;20.40;;
27003;SDS011;14546;47.590;19.022;2022-10-24T00:46:38;29.15;;;20.25;;
27003;SDS011;14546;47.590;19.022;2022-10-24T00:49:04;28.58;;;19.48;;
27003;SDS011;14546;47.590;19.022;2022-10-24T00:51:31;25.45;;;20.38;;
27003;SDS011;14546;47.590;19.022;2022-10-24T00:54:05;26.58;;;19.80;;
27003;SDS011;14546;47.590;19.022;2022-10-24T00:56:34;26.13;;;19.23;;
27003;SDS011;14546;47.590;19.022;2022-10-24T00:59:02;31.13;;;19.80;;
27003;SDS011;14546;47.590;19.022;2022-10-24T01:01:28;29.63;;;19.80;;
27003;SDS011;14546;47.590;19.022;2022-10-24T01:03:54;26.23;;;18.83;;
27003;SDS011;14546;47.590;19.022;2022-10-24T01:06:22;28.70;;;19.35;;
27003;SDS011;14546;47.590;19.022;2022-10-24T01:16:48;30.42;;;20.42;;
27003;SDS011;14546;47.590;19.022;2022-10-24T01:22:07;28.88;;;20.08;;
27003;SDS011;14546;47.590;19.022;2022-10-24T01:25:12;29.23;;;20.85;;
27003;SDS011;14546;47.590;19.022;2022-10-24T01:30:15;26.17;;;19.83;;
27003;SDS011;14546;47.590;19.022;2022-10-24T01:35:31;31.13;;;21.38;;
27003;SDS011;14546;47.590;19.022;2022-10-24T01:39:05;31.20;;;21.55;;
27003;SDS011;14546;47.590;19.022;2022-10-24T01:41:01;32.70;;;21.20;;
27003;SDS011;14546;47.590;19.022;2022-10-24T01:43:33;29.75;;;20.83;;
27003;SDS011;14546;47.590;19.022;2022-10-24T01:46:02;26.65;;;20.25;;
27003;SDS011;14546;47.590;19.022;2022-10-24T01:48:29;29.52;;;21.58;;
27003;SDS011;14546;47.590;19.022;2022-10-24T01:50:57;28.63;;;20.33;;
27003;SDS011;14546;47.590;19.022;2022-10-24T01:53:24;28.05;;;20.45;;
27003;SDS011;14546;47.590;19.022;2022-10-24T01:55:52;28.02;;;21.08;;
27003;SDS011;14546;47.590;19.022;2022-10-24T01:58:19;28.35;;;20.65;;
27003;SDS011;14546;47.590;19.022;2022-10-24T02:00:45;29.30;;;21.13;;
27003;SDS011;14546;47.590;19.022;2022-10-24T02:05:49;31.77;;;22.08;;
27003;SDS011;14546;47.590;19.022;2022-10-24T02:08:18;29.15;;;21.80;;
27003;SDS011;14546;47.590;19.022;2022-10-24T02:10:56;30.25;;;22.00;;
27003;SDS011;14546;47.590;19.022;2022-10-24T02:13:43;29.42;;;22.38;;
27003;SDS011;14546;47.590;19.022;2022-10-24T02:16:11;30.13;;;22.48;;
27003;SDS011;14546;47.590;19.022;2022-10-24T02:18:38;34.67;;;24.00;;
27003;SDS011;14546;47.590;19.022;2022-10-24T02:21:18;32.42;;;23.83;;
27003;SDS011;14546;47.590;19.022;2022-10-24T02:28:51;30.60;;;24.00;;
27003;SDS011;14546;47.590;19.022;2022-10-24T02:31:19;36.75;;;25.73;;
27003;SDS011;14546;47.590;19.022;2022-10-24T02:33:47;33.33;;;24.35;;
27003;SDS011;14546;47.590;19.022;2022-10-24T02:36:15;33.95;;;24.73;;
27003;SDS011;14546;47.590;19.022;2022-10-24T02:38:43;33.15;;;24.50;;
27003;SDS011;14546;47.590;19.022;2022-10-24T02:41:10;34.90;;;25.77;;
27003;SDS011;14546;47.590;19.022;2022-10-24T02:43:37;38.28;;;25.77;;
27003;SDS011;14546;47.590;19.022;2022-10-24T02:46:05;34.42;;;25.60;;
27003;SDS011;14546;47.590;19.022;2022-10-24T02:48:33;35.45;;;25.35;;
27003;SDS011;14546;47.590;19.022;2022-10-24T02:50:59;31.70;;;23.92;;
27003;SDS011;14546;47.590;19.022;2022-10-24T02:53:26;38.03;;;25.05;;
27003;SDS011;14546;47.590;19.022;2022-10-24T02:55:53;30.52;;;23.30;;
27003;SDS011;14546;47.590;19.022;2022-10-24T02:58:19;30.52;;;23.38;;
27003;SDS011;14546;47.590;19.022;2022-10-24T03:00:45;35.63;;;25.23;;
27003;SDS011;14546;47.590;19.022;2022-10-24T03:03:11;33.72;;;23.80;;
27003;SDS011;14546;47.590;19.022;2022-10-24T03:05:37;34.05;;;24.63;;
27003;SDS011;14546;47.590;19.022;2022-10-24T03:08:03;35.45;;;25.35;;
27003;SDS011;14546;47.590;19.022;2022-10-24T03:10:29;34.53;;;26.17;;
27003;SDS011;14546;47.590;19.022;2022-10-24T03:12:55;33.40;;;25.17;;
27003;SDS011;14546;47.590;19.022;2022-10-24T03:15:21;34.00;;;25.75;;
27003;SDS011;14546;47.590;19.022;2022-10-24T03:17:47;33.53;;;24.95;;
27003;SDS011;14546;47.590;19.022;2022-10-24T03:20:14;34.92;;;25.60;;
27003;SDS011;14546;47.590;19.022;2022-10-24T03:22:40;39.83;;;26.10;;
27003;SDS011;14546;47.590;19.022;2022-10-24T03:25:06;34.60;;;25.65;;
27003;SDS011;14546;47.590;19.022;2022-10-24T03:27:32;37.67;;;25.98;;
27003;SDS011;14546;47.590;19.022;2022-10-24T03:29:59;37.65;;;27.33;;
27003;SDS011;14546;47.590;19.022;2022-10-24T03:32:25;34.58;;;26.20;;
27003;SDS011;14546;47.590;19.022;2022-10-24T03:34:52;37.97;;;26.33;;
27003;SDS011;14546;47.590;19.022;2022-10-24T03:37:18;37.55;;;26.55;;
27003;SDS011;14546;47.590;19.022;2022-10-24T03:39:44;41.25;;;26.92;;
27003;SDS011;14546;47.590;19.022;2022-10-24T03:42:10;41.97;;;29.77;;
27003;SDS011;14546;47.590;19.022;2022-10-24T03:44:36;46.83;;;29.60;;
27003;SDS011;14546;47.590;19.022;2022-10-24T03:47:02;46.50;;;30.15;;
27003;SDS011;14546;47.590;19.022;2022-10-24T03:49:28;46.30;;;29.30;;
27003;SDS011;14546;47.590;19.022;2022-10-24T03:51:56;43.58;;;29.13;;
27003;SDS011;14546;47.590;19.022;2022-10-24T03:54:22;42.03;;;29.42;;
27003;SDS011;14546;47.590;19.022;2022-10-24T03:56:48;42.95;;;31.00;;
27003;SDS011;14546;47.590;19.022;2022-10-24T03:59:14;48.60;;;31.40;;
27003;SDS011;14546;47.590;19.022;2022-10-24T04:01:40;46.25;;;31.02;;
27003;SDS011;14546;47.590;19.022;2022-10-24T04:04:07;43.92;;;30.38;;
27003;SDS011;14546;47.590;19.022;2022-10-24T04:06:33;46.25;;;30.48;;
27003;SDS011;14546;47.590;19.022;2022-10-24T04:08:59;49.55;;;32.72;;
27003;SDS011;14546;47.590;19.022;2022-10-24T04:11:25;46.53;;;32.38;;
27003;SDS011;14546;47.590;19.022;2022-10-24T04:13:52;53.28;;;32.95;;
27003;SDS011;14546;47.590;19.022;2022-10-24T04:16:18;48.83;;;33.08;;
27003;SDS011;14546;47.590;19.022;2022-10-24T04:18:45;42.78;;;31.13;;
27003;SDS011;14546;47.590;19.022;2022-10-24T04:21:11;46.83;;;32.13;;
27003;SDS011;14546;47.590;19.022;2022-10-24T04:23:37;51.13;;;32.70;;
27003;SDS011;14546;47.590;19.022;2022-10-24T04:26:05;56.65;;;33.65;;
27003;SDS011;14546;47.590;19.022;2022-10-24T04:28:32;54.92;;;33.50;;
27003;SDS011;14546;47.590;19.022;2022-10-24T04:30:58;49.47;;;33.30;;
27003;SDS011;14546;47.590;19.022;2022-10-24T04:33:24;57.65;;;34.13;;
27003;SDS011;14546;47.590;19.022;2022-10-24T04:35:51;52.38;;;33.00;;
27003;SDS011;14546;47.590;19.022;2022-10-24T04:38:17;48.58;;;32.60;;
27003;SDS011;14546;47.590;19.022;2022-10-24T04:40:45;49.60;;;33.53;;
27003;SDS011;14546;47.590;19.022;2022-10-24T04:43:11;50.50;;;33.80;;
27003;SDS011;14546;47.590;19.022;2022-10-24T04:45:37;50.35;;;34.20;;
27003;SDS011;14546;47.590;19.022;2022-10-24T04:48:03;56.42;;;35.60;;
27003;SDS011;14546;47.590;19.022;2022-10-24T04:50:29;54.80;;;35.35;;
27003;SDS011;14546;47.590;19.022;2022-10-24T04:52:55;60.00;;;34.78;;
27003;SDS011;14546;47.590;19.022;2022-10-24T04:55:21;61.17;;;36.03;;
27003;SDS011;14546;47.590;19.022;2022-10-24T04:57:47;66.63;;;36.83;;
27003;SDS011;14546;47.590;19.022;2022-10-24T05:00:14;57.22;;;35.40;;
27003;SDS011;14546;47.590;19.022;2022-10-24T05:02:40;80.95;;;36.38;;
27003;SDS011;14546;47.590;19.022;2022-10-24T05:05:06;57.78;;;35.60;;
27003;SDS011;14546;47.590;19.022;2022-10-24T05:07:32;55.40;;;36.22;;
27003;SDS011;14546;47.590;19.022;2022-10-24T05:09:58;58.08;;;36.00;;
27003;SDS011;14546;47.590;19.022;2022-10-24T05:12:24;65.68;;;37.78;;
27003;SDS011;14546;47.590;19.022;2022-10-24T05:14:50;60.95;;;36.42;;
27003;SDS011;14546;47.590;19.022;2022-10-24T05:17:16;61.80;;;35.50;;
27003;SDS011;14546;47.590;19.022;2022-10-24T05:19:42;62.25;;;36.88;;
27003;SDS011;14546;47.590;19.022;2022-10-24T05:22:08;60.85;;;36.55;;
27003;SDS011;14546;47.590;19.022;2022-10-24T05:24:34;61.45;;;36.58;;
27003;SDS011;14546;47.590;19.022;2022-10-24T05:27:01;54.00;;;34.38;;
27003;SDS011;14546;47.590;19.022;2022-10-24T05:29:27;50.55;;;34.35;;
27003;SDS011;14546;47.590;19.022;2022-10-24T05:31:53;59.53;;;36.30;;
27003;SDS011;14546;47.590;19.022;2022-10-24T05:34:19;60.20;;;36.47;;
27003;SDS011;14546;47.590;19.022;2022-10-24T05:36:45;61.42;;;36.17;;
27003;SDS011;14546;47.590;19.022;2022-10-24T05:39:11;57.78;;;36.72;;
27003;SDS011;14546;47.590;19.022;2022-10-24T05:41:37;64.30;;;38.38;;
27003;SDS011;14546;47.590;19.022;2022-10-24T05:44:03;71.38;;;38.88;;
27003;SDS011;14546;47.590;19.022;2022-10-24T05:46:29;67.28;;;38.10;;
27003;SDS011;14546;47.590;19.022;2022-10-24T05:48:56;66.57;;;38.58;;
27003;SDS011;14546;47.590;19.022;2022-10-24T05:51:24;59.58;;;37.58;;
27003;SDS011;14546;47.590;19.022;2022-10-24T05:53:51;69.30;;;39.38;;
27003;SDS011;14546;47.590;19.022;2022-10-24T05:56:17;65.93;;;39.47;;
27003;SDS011;14546;47.590;19.022;2022-10-24T05:58:43;67.90;;;38.85;;
27003;SDS011;14546;47.590;19.022;2022-10-24T06:01:09;73.10;;;40.00;;
27003;SDS011;14546;47.590;19.022;2022-10-24T06:03:35;66.93;;;37.92;;
27003;SDS011;14546;47.590;19.022;2022-10-24T06:06:02;74.03;;;40.47;;
27003;SDS011;14546;47.590;19.022;2022-10-24T06:08:29;79.32;;;41.30;;
27003;SDS011;14546;47.590;19.022;2022-10-24T06:10:55;80.80;;;40.80;;
27003;SDS011;14546;47.590;19.022;2022-10-24T06:13:21;98.05;;;41.58;;
27003;SDS011;14546;47.590;19.022;2022-10-24T06:15:47;83.95;;;40.05;;
27003;SDS011;14546;47.590;19.022;2022-10-24T06:18:13;96.25;;;42.70;;
27003;SDS011;14546;47.590;19.022;2022-10-24T06:20:39;89.13;;;43.53;;
27003;SDS011;14546;47.590;19.022;2022-10-24T06:23:05;94.07;;;43.30;;
27003;SDS011;14546;47.590;19.022;2022-10-24T06:25:31;100.68;;;45.22;;
27003;SDS011;14546;47.590;19.022;2022-10-24T06:27:57;107.00;;;45.80;;
27003;SDS011;14546;47.590;19.022;2022-10-24T06:30:23;112.90;;;47.67;;
27003;SDS011;14546;47.590;19.022;2022-10-24T06:32:49;107.65;;;45.30;;
27003;SDS011;14546;47.590;19.022;2022-10-24T06:35:16;103.13;;;47.08;;
27003;SDS011;14546;47.590;19.022;2022-10-24T06:37:43;127.25;;;50.58;;
27003;SDS011;14546;47.590;19.022;2022-10-24T06:40:09;108.78;;;47.17;;
27003;SDS011;14546;47.590;19.022;2022-10-24T06:42:36;104.30;;;46.22;;
27003;SDS011;14546;47.590;19.022;2022-10-24T06:45:02;101.75;;;46.45;;
27003;SDS011;14546;47.590;19.022;2022-10-24T06:47:29;98.15;;;45.28;;
27003;SDS011;14546;47.590;19.022;2022-10-24T06:49:55;125.85;;;47.42;;
27003;SDS011;14546;47.590;19.022;2022-10-24T06:52:21;106.45;;;45.83;;
27003;SDS011;14546;47.590;19.022;2022-10-24T06:54:48;101.68;;;44.80;;
27003;SDS011;14546;47.590;19.022;2022-10-24T06:57:14;109.97;;;44.83;;
27003;SDS011;14546;47.590;19.022;2022-10-24T06:59:40;95.00;;;42.58;;
27003;SDS011;14546;47.590;19.022;2022-10-24T07:02:06;108.00;;;43.92;;
27003;SDS011;14546;47.590;19.022;2022-10-24T07:04:32;113.63;;;44.50;;
27003;SDS011;14546;47.590;19.022;2022-10-24T07:06:58;97.43;;;43.65;;
27003;SDS011;14546;47.590;19.022;2022-10-24T07:09:24;92.82;;;43.00;;
27003;SDS011;14546;47.590;19.022;2022-10-24T07:11:50;102.32;;;44.22;;
27003;SDS011;14546;47.590;19.022;2022-10-24T07:14:16;92.88;;;42.10;;
27003;SDS011;14546;47.590;19.022;2022-10-24T07:16:42;98.25;;;43.53;;
27003;SDS011;14546;47.590;19.022;2022-10-24T07:19:09;97.35;;;42.58;;
27003;SDS011;14546;47.590;19.022;2022-10-24T07:21:35;87.00;;;40.60;;
27003;SDS011;14546;47.590;19.022;2022-10-24T07:24:02;90.32;;;40.28;;
27003;SDS011;14546;47.590;19.022;2022-10-24T07:26:28;95.57;;;41.53;;
27003;SDS011;14546;47.590;19.022;2022-10-24T07:28:56;89.20;;;41.60;;
27003;SDS011;14546;47.590;19.022;2022-10-24T07:31:25;89.65;;;41.20;;
27003;SDS011;14546;47.590;19.022;2022-10-24T07:33:52;93.07;;;41.00;;
27003;SDS011;14546;47.590;19.022;2022-10-24T07:36:20;87.25;;;39.63;;
27003;SDS011;14546;47.590;19.022;2022-10-24T07:38:47;81.43;;;39.58;;
27003;SDS011;14546;47.590;19.022;2022-10-24T07:41:13;84.65;;;39.35;;
27003;SDS011;14546;47.590;19.022;2022-10-24T07:43:39;77.85;;;38.90;;
27003;SDS011;14546;47.590;19.022;2022-10-24T07:46:10;91.45;;;41.30;;
27003;SDS011;14546;47.590;19.022;2022-10-24T07:48:36;93.20;;;41.97;;
27003;SDS011;14546;47.590;19.022;2022-10-24T07:51:13;95.47;;;40.90;;
27003;SDS011;14546;47.590;19.022;2022-10-24T07:53:39;95.45;;;41.45;;
27003;SDS011;14546;47.590;19.022;2022-10-24T07:56:06;99.65;;;40.83;;
27003;SDS011;14546;47.590;19.022;2022-10-24T07:58:35;89.65;;;41.75;;
27003;SDS011;14546;47.590;19.022;2022-10-24T08:01:22;95.95;;;41.00;;
27003;SDS011;14546;47.590;19.022;2022-10-24T08:03:48;82.82;;;38.47;;
27003;SDS011;14546;47.590;19.022;2022-10-24T08:06:16;105.03;;;41.88;;
27003;SDS011;14546;47.590;19.022;2022-10-24T08:08:43;108.85;;;41.10;;
27003;SDS011;14546;47.590;19.022;2022-10-24T08:11:20;107.40;;;41.95;;
27003;SDS011;14546;47.590;19.022;2022-10-24T08:13:46;101.20;;;41.92;;
27003;SDS011;14546;47.590;19.022;2022-10-24T08:16:13;95.65;;;38.70;;
27003;SDS011;14546;47.590;19.022;2022-10-24T08:18:40;105.57;;;40.92;;
27003;SDS011;14546;47.590;19.022;2022-10-24T08:21:09;105.53;;;41.05;;
27003;SDS011;14546;47.590;19.022;2022-10-24T08:23:36;102.22;;;38.58;;
27003;SDS011;14546;47.590;19.022;2022-10-24T08:26:05;98.50;;;38.78;;
27003;SDS011;14546;47.590;19.022;2022-10-24T08:28:32;87.70;;;37.53;;
27003;SDS011;14546;47.590;19.022;2022-10-24T08:31:03;91.95;;;37.67;;
27003;SDS011;14546;47.590;19.022;2022-10-24T08:33:29;85.05;;;36.20;;
27003;SDS011;14546;47.590;19.022;2022-10-24T08:35:57;87.40;;;38.33;;
27003;SDS011;14546;47.590;19.022;2022-10-24T08:38:23;94.40;;;35.30;;
27003;SDS011;14546;47.590;19.022;2022-10-24T08:40:49;92.05;;;35.15;;
27003;SDS011;14546;47.590;19.022;2022-10-24T08:43:16;88.55;;;38.53;;
27003;SDS011;14546;47.590;19.022;2022-10-24T08:48:22;83.97;;;34.88;;
27003;SDS011;14546;47.590;19.022;2022-10-24T08:50:52;84.85;;;34.30;;
27003;SDS011;14546;47.590;19.022;2022-10-24T08:53:23;74.13;;;36.00;;
27003;SDS011;14546;47.590;19.022;2022-10-24T08:55:50;79.35;;;33.15;;
27003;SDS011;14546;47.590;19.022;2022-10-24T08:58:22;75.82;;;32.75;;
27003;SDS011;14546;47.590;19.022;2022-10-24T09:00:51;74.15;;;34.55;;
27003;SDS011;14546;47.590;19.022;2022-10-24T09:03:20;73.20;;;35.03;;
27003;SDS011;14546;47.590;19.022;2022-10-24T09:05:51;75.78;;;33.40;;
27003;SDS011;14546;47.590;19.022;2022-10-24T09:08:32;69.97;;;33.20;;
27003;SDS011;14546;47.590;19.022;2022-10-24T09:11:01;79.20;;;33.28;;
27003;SDS011;14546;47.590;19.022;2022-10-24T09:13:28;88.95;;;36.55;;
27003;SDS011;14546;47.590;19.022;2022-10-24T09:15:55;73.65;;;34.40;;
27003;SDS011;14546;47.590;19.022;2022-10-24T09:18:22;76.95;;;32.33;;
27003;SDS011;14546;47.590;19.022;2022-10-24T09:20:50;69.53;;;31.13;;
27003;SDS011;14546;47.590;19.022;2022-10-24T09:23:17;66.18;;;31.10;;
27003;SDS011;14546;47.590;19.022;2022-10-24T09:25:48;68.32;;;32.65;;
27003;SDS011;14546;47.590;19.022;2022-10-24T09:28:16;69.30;;;32.83;;
27003;SDS011;14546;47.590;19.022;2022-10-24T09:30:42;85.32;;;34.45;;
27003;SDS011;14546;47.590;19.022;2022-10-24T09:33:22;75.55;;;32.05;;
27003;SDS011;14546;47.590;19.022;2022-10-24T09:35:50;68.97;;;31.92;;
27003;SDS011;14546;47.590;19.022;2022-10-24T09:43:16;73.55;;;29.80;;
27003;SDS011;14546;47.590;19.022;2022-10-24T09:48:44;75.65;;;31.90;;
27003;SDS011;14546;47.590;19.022;2022-10-24T09:51:18;73.82;;;33.15;;
27003;SDS011;14546;47.590;19.022;2022-10-24T09:54:02;71.10;;;31.23;;
27003;SDS011;14546;47.590;19.022;2022-10-24T09:56:33;73.70;;;31.83;;
27003;SDS011;14546;47.590;19.022;2022-10-24T09:59:26;62.78;;;30.10;;
27003;SDS011;14546;47.590;19.022;2022-10-24T10:01:52;67.20;;;31.35;;
27003;SDS011;14546;47.590;19.022;2022-10-24T10:04:18;69.68;;;32.45;;
27003;SDS011;14546;47.590;19.022;2022-10-24T10:06:45;69.43;;;33.92;;
27003;SDS011;14546;47.590;19.022;2022-10-24T10:09:13;67.03;;;32.65;;
27003;SDS011;14546;47.590;19.022;2022-10-24T10:11:40;70.07;;;33.50;;
27003;SDS011;14546;47.590;19.022;2022-10-24T10:14:18;72.68;;;34.60;;
27003;SDS011;14546;47.590;19.022;2022-10-24T10:16:45;76.88;;;34.65;;
27003;SDS011;14546;47.590;19.022;2022-10-24T10:19:22;73.55;;;35.92;;
27003;SDS011;14546;47.590;19.022;2022-10-24T10:24:38;88.07;;;37.38;;
27003;SDS011;14546;47.590;19.022;2022-10-24T10:30:06;93.25;;;41.50;;
27003;SDS011;14546;47.590;19.022;2022-10-24T10:40:48;87.05;;;44.35;;
27003;SDS011;14546;47.590;19.022;2022-10-24T10:43:21;90.78;;;45.10;;
27003;SDS011;14546;47.590;19.022;2022-10-24T10:53:35;82.22;;;43.63;;
27003;SDS011;14546;47.590;19.022;2022-10-24T11:03:35;87.57;;;43.58;;
27003;SDS011;14546;47.590;19.022;2022-10-24T11:11:22;87.35;;;44.60;;
27003;SDS011;14546;47.590;19.022;2022-10-24T11:16:34;83.30;;;45.17;;
27003;SDS011;14546;47.590;19.022;2022-10-24T11:19:01;82.68;;;43.58;;
27003;SDS011;14546;47.590;19.022;2022-10-24T11:21:30;86.47;;;45.47;;
27003;SDS011;14546;47.590;19.022;2022-10-24T11:26:30;84.15;;;44.40;;
27003;SDS011;14546;47.590;19.022;2022-10-24T11:31:44;72.50;;;41.15;;
27003;SDS011;14546;47.590;19.022;2022-10-24T11:34:13;81.68;;;42.50;;
27003;SDS011;14546;47.590;19.022;2022-10-24T11:36:42;69.85;;;39.28;;
27003;SDS011;14546;47.590;19.022;2022-10-24T11:41:51;71.68;;;39.45;;
27003;SDS011;14546;47.590;19.022;2022-10-24T11:44:24;68.50;;;38.28;;
27003;SDS011;14546;47.590;19.022;2022-10-24T11:47:00;66.88;;;39.90;;
27003;SDS011;14546;47.590;19.022;2022-10-24T11:49:33;67.45;;;37.83;;
27003;SDS011;14546;47.590;19.022;2022-10-24T11:52:07;70.30;;;39.67;;
27003;SDS011;14546;47.590;19.022;2022-10-24T11:54:44;71.50;;;40.58;;
27003;SDS011;14546;47.590;19.022;2022-10-24T11:57:14;70.07;;;40.35;;
27003;SDS011;14546;47.590;19.022;2022-10-24T11:59:42;72.95;;;41.05;;
27003;SDS011;14546;47.590;19.022;2022-10-24T12:12:43;72.97;;;39.65;;
27003;SDS011;14546;47.590;19.022;2022-10-24T12:20:44;74.70;;;39.05;;
27003;SDS011;14546;47.590;19.022;2022-10-24T12:23:16;69.20;;;41.42;;
27003;SDS011;14546;47.590;19.022;2022-10-24T12:25:44;62.30;;;37.70;;
27003;SDS011;14546;47.590;19.022;2022-10-24T12:28:20;64.50;;;36.83;;
27003;SDS011;14546;47.590;19.022;2022-10-24T12:33:32;69.50;;;35.70;;
27003;SDS011;14546;47.590;19.022;2022-10-24T12:35:58;58.28;;;34.33;;
27003;SDS011;14546;47.590;19.022;2022-10-24T12:40:57;58.47;;;35.13;;
27003;SDS011;14546;47.590;19.022;2022-10-24T12:43:36;61.20;;;34.25;;
27003;SDS011;14546;47.590;19.022;2022-10-24T12:51:29;67.13;;;38.05;;
27003;SDS011;14546;47.590;19.022;2022-10-24T12:56:21;62.72;;;34.53;;
27003;SDS011;14546;47.590;19.022;2022-10-24T12:58:57;57.72;;;34.80;;
27003;SDS011;14546;47.590;19.022;2022-10-24T13:01:25;61.25;;;34.10;;
27003;SDS011;14546;47.590;19.022;2022-10-24T13:16:53;47.97;;;30.65;;
27003;SDS011;14546;47.590;19.022;2022-10-24T13:19:24;60.72;;;32.22;;
27003;SDS011;14546;47.590;19.022;2022-10-24T13:21:51;57.08;;;32.35;;
27003;SDS011;14546;47.590;19.022;2022-10-24T13:24:20;52.38;;;31.02;;
27003;SDS011;14546;47.590;19.022;2022-10-24T13:26:48;53.17;;;31.52;;
27003;SDS011;14546;47.590;19.022;2022-10-24T13:31:47;53.88;;;31.23;;
27003;SDS011;14546;47.590;19.022;2022-10-24T13:36:59;41.60;;;28.25;;
27003;SDS011;14546;47.590;19.022;2022-10-24T13:39:27;48.33;;;29.50;;
27003;SDS011;14546;47.590;19.022;2022-10-24T13:41:58;45.78;;;30.92;;
27003;SDS011;14546;47.590;19.022;2022-10-24T13:44:44;44.17;;;28.75;;
27003;SDS011;14546;47.590;19.022;2022-10-24T13:47:13;48.47;;;29.98;;
27003;SDS011;14546;47.590;19.022;2022-10-24T13:49:41;55.35;;;30.83;;
27003;SDS011;14546;47.590;19.022;2022-10-24T13:52:19;43.53;;;28.80;;
27003;SDS011;14546;47.590;19.022;2022-10-24T13:54:47;46.72;;;29.50;;
27003;SDS011;14546;47.590;19.022;2022-10-24T13:57:21;41.58;;;28.83;;
27003;SDS011;14546;47.590;19.022;2022-10-24T13:59:52;42.85;;;28.98;;
27003;SDS011;14546;47.590;19.022;2022-10-24T14:02:19;45.28;;;29.10;;
27003;SDS011;14546;47.590;19.022;2022-10-24T14:04:46;42.20;;;28.02;;
27003;SDS011;14546;47.590;19.022;2022-10-24T14:07:25;46.95;;;29.08;;
27003;SDS011;14546;47.590;19.022;2022-10-24T14:09:56;50.40;;;30.92;;
27003;SDS011;14546;47.590;19.022;2022-10-24T14:12:23;51.75;;;31.25;;
27003;SDS011;14546;47.590;19.022;2022-10-24T14:14:50;60.33;;;32.60;;
27003;SDS011;14546;47.590;19.022;2022-10-24T14:17:22;53.08;;;30.63;;
27003;SDS011;14546;47.590;19.022;2022-10-24T14:20:17;53.55;;;31.45;;
27003;SDS011;14546;47.590;19.022;2022-10-24T14:22:41;47.85;;;30.25;;
27003;SDS011;14546;47.590;19.022;2022-10-24T14:27:53;59.60;;;32.15;;
27003;SDS011;14546;47.590;19.022;2022-10-24T14:30:20;60.40;;;33.13;;
27003;SDS011;14546;47.590;19.022;2022-10-24T14:32:47;65.35;;;34.13;;
27003;SDS011;14546;47.590;19.022;2022-10-24T14:35:13;60.70;;;34.28;;
27003;SDS011;14546;47.590;19.022;2022-10-24T14:37:39;67.88;;;33.15;;
27003;SDS011;14546;47.590;19.022;2022-10-24T14:40:24;56.20;;;34.22;;
27003;SDS011;14546;47.590;19.022;2022-10-24T14:42:50;57.20;;;31.50;;
27003;SDS011;14546;47.590;19.022;2022-10-24T14:45:24;56.45;;;32.50;;
27003;SDS011;14546;47.590;19.022;2022-10-24T14:47:52;54.17;;;32.03;;
27003;SDS011;14546;47.590;19.022;2022-10-24T14:50:38;51.58;;;31.98;;
27003;SDS011;14546;47.590;19.022;2022-10-24T14:53:05;64.30;;;33.33;;
27003;SDS011;14546;47.590;19.022;2022-10-24T14:55:49;54.72;;;32.67;;
27003;SDS011;14546;47.590;19.022;2022-10-24T14:58:21;57.47;;;33.58;;
27003;SDS011;14546;47.590;19.022;2022-10-24T15:00:48;64.00;;;35.08;;
27003;SDS011;14546;47.590;19.022;2022-10-24T15:03:15;68.00;;;34.40;;
27003;SDS011;14546;47.590;19.022;2022-10-24T15:05:41;64.95;;;35.92;;
27003;SDS011;14546;47.590;19.022;2022-10-24T15:13:00;60.97;;;33.88;;
27003;SDS011;14546;47.590;19.022;2022-10-24T15:15:30;55.28;;;34.25;;
27003;SDS011;14546;47.590;19.022;2022-10-24T15:20:31;61.08;;;35.92;;
27003;SDS011;14546;47.590;19.022;2022-10-24T15:22:59;59.42;;;33.97;;
27003;SDS011;14546;47.590;19.022;2022-10-24T15:25:32;58.75;;;33.47;;
27003;SDS011;14546;47.590;19.022;2022-10-24T15:27:59;71.75;;;36.65;;
27003;SDS011;14546;47.590;19.022;2022-10-24T15:30:27;63.40;;;34.28;;
27003;SDS011;14546;47.590;19.022;2022-10-24T15:32:54;57.40;;;33.80;;
27003;SDS011;14546;47.590;19.022;2022-10-24T15:35:20;62.67;;;35.58;;
27003;SDS011;14546;47.590;19.022;2022-10-24T15:37:54;64.90;;;35.65;;
27003;SDS011;14546;47.590;19.022;2022-10-24T15:40:22;69.35;;;37.53;;
27003;SDS011;14546;47.590;19.022;2022-10-24T15:42:48;64.93;;;36.05;;
27003;SDS011;14546;47.590;19.022;2022-10-24T15:45:15;66.20;;;35.45;;
27003;SDS011;14546;47.590;19.022;2022-10-24T15:47:41;67.60;;;38.03;;
27003;SDS011;14546;47.590;19.022;2022-10-24T15:50:11;66.85;;;35.53;;
27003;SDS011;14546;47.590;19.022;2022-10-24T15:52:38;74.43;;;37.65;;
27003;SDS011;14546;47.590;19.022;2022-10-24T15:55:04;65.93;;;36.75;;
27003;SDS011;14546;47.590;19.022;2022-10-24T15:57:30;72.40;;;36.55;;
27003;SDS011;14546;47.590;19.022;2022-10-24T15:59:56;65.20;;;36.13;;
27003;SDS011;14546;47.590;19.022;2022-10-24T16:02:22;66.40;;;36.60;;
27003;SDS011;14546;47.590;19.022;2022-10-24T16:04:49;63.50;;;33.88;;
27003;SDS011;14546;47.590;19.022;2022-10-24T16:07:15;59.95;;;32.78;;
27003;SDS011;14546;47.590;19.022;2022-10-24T16:09:41;56.42;;;32.92;;
27003;SDS011;14546;47.590;19.022;2022-10-24T16:12:09;62.17;;;34.55;;
27003;SDS011;14546;47.590;19.022;2022-10-24T16:14:36;62.85;;;35.85;;
27003;SDS011;14546;47.590;19.022;2022-10-24T16:17:02;69.00;;;35.17;;
27003;SDS011;14546;47.590;19.022;2022-10-24T16:19:28;60.05;;;33.10;;
27003;SDS011;14546;47.590;19.022;2022-10-24T16:21:54;67.07;;;34.13;;
27003;SDS011;14546;47.590;19.022;2022-10-24T16:24:22;64.72;;;34.55;;
27003;SDS011;14546;47.590;19.022;2022-10-24T16:26:49;60.83;;;33.83;;
27003;SDS011;14546;47.590;19.022;2022-10-24T16:29:15;65.15;;;34.45;;
27003;SDS011;14546;47.590;19.022;2022-10-24T16:31:41;63.38;;;34.50;;
27003;SDS011;14546;47.590;19.022;2022-10-24T16:34:09;65.60;;;33.03;;